createdAt,value
2017-04-02T00:00:13.241Z,0
2017-04-02T00:00:32.028Z,0
2017-04-02T00:00:51.350Z,0
2017-04-02T00:01:10.661Z,0
2017-04-02T00:01:29.965Z,0
2017-04-02T00:01:49.281Z,0
2017-04-02T00:02:08.090Z,0
2017-04-02T00:02:27.433Z,0
2017-04-02T00:02:46.218Z,0
2017-04-02T00:03:05.536Z,0
2017-04-02T00:03:24.929Z,0
2017-04-02T00:03:44.239Z,0
2017-04-02T00:04:03.537Z,0
2017-04-02T00:04:22.854Z,0
2017-04-02T00:04:41.672Z,0
2017-04-02T00:05:00.966Z,0
2017-04-02T00:05:20.292Z,0
2017-04-02T00:05:39.599Z,0
2017-04-02T00:05:58.919Z,0
2017-04-02T00:06:18.246Z,0
2017-04-02T00:06:37.561Z,0
2017-04-02T00:06:56.870Z,0
2017-04-02T00:07:16.183Z,0
2017-04-02T00:07:34.994Z,0
2017-04-02T00:07:54.301Z,0
2017-04-02T00:08:13.611Z,0
2017-04-02T00:08:32.397Z,0
2017-04-02T00:08:51.714Z,0
2017-04-02T00:09:11.031Z,0
2017-04-02T00:09:30.354Z,0
2017-04-02T00:09:49.700Z,0
2017-04-02T00:10:08.475Z,0
2017-04-02T00:10:27.767Z,0
2017-04-02T00:10:47.083Z,0
2017-04-02T00:11:06.456Z,0
2017-04-02T00:11:25.750Z,0
2017-04-02T00:11:45.047Z,0
2017-04-02T00:12:04.357Z,0
2017-04-02T00:12:23.156Z,0
2017-04-02T00:12:42.451Z,0
2017-04-02T00:13:01.285Z,0
2017-04-02T00:13:20.622Z,0
2017-04-02T00:13:39.928Z,0
2017-04-02T00:13:58.702Z,0
2017-04-02T00:14:18.026Z,0
2017-04-02T00:14:37.349Z,0
2017-04-02T00:14:56.659Z,0
2017-04-02T00:15:15.986Z,0
2017-04-02T00:15:34.779Z,0
2017-04-02T00:15:53.559Z,0
2017-04-02T00:16:12.860Z,0
2017-04-02T00:16:31.665Z,0
2017-04-02T00:16:51.005Z,0
2017-04-02T00:17:10.328Z,0
2017-04-02T00:17:29.612Z,0
2017-04-02T00:17:48.947Z,0
2017-04-02T00:18:08.294Z,0
2017-04-02T00:18:27.589Z,0
2017-04-02T00:18:46.931Z,0
2017-04-02T00:19:06.333Z,0
2017-04-02T00:19:25.661Z,0
2017-04-02T00:19:45.001Z,0
2017-04-02T00:20:04.312Z,0
2017-04-02T00:20:23.679Z,0
2017-04-02T00:20:43.043Z,0
2017-04-02T00:21:01.869Z,0
2017-04-02T00:21:21.195Z,0
2017-04-02T00:21:40.560Z,0
2017-04-02T00:21:59.380Z,0
2017-04-02T00:22:18.718Z,0
2017-04-02T00:22:37.553Z,0
2017-04-02T00:22:56.356Z,0
2017-04-02T00:23:15.684Z,0
2017-04-02T00:23:34.999Z,0
2017-04-02T00:23:54.415Z,0
2017-04-02T00:24:13.719Z,0
2017-04-02T00:24:33.078Z,0
2017-04-02T00:24:52.391Z,0
2017-04-02T00:25:11.742Z,0
2017-04-02T00:25:31.091Z,0
2017-04-02T00:25:50.415Z,0
2017-04-02T00:26:09.739Z,0
2017-04-02T00:26:29.042Z,0
2017-04-02T00:26:48.370Z,0
2017-04-02T00:27:07.690Z,0
2017-04-02T00:27:27.034Z,0
2017-04-02T00:27:45.892Z,0
2017-04-02T00:28:05.218Z,0
2017-04-02T00:28:24.509Z,0
2017-04-02T00:28:43.816Z,0
2017-04-02T00:29:03.140Z,0
2017-04-02T00:29:21.928Z,0
2017-04-02T00:29:41.253Z,0
2017-04-02T00:30:00.630Z,0
2017-04-02T00:30:19.929Z,0
2017-04-02T00:30:39.299Z,0
2017-04-02T00:30:58.615Z,0
2017-04-02T00:31:17.945Z,0
2017-04-02T00:31:37.319Z,0
2017-04-02T00:31:56.713Z,0
2017-04-02T00:32:16.108Z,0
2017-04-02T00:32:34.408Z,0
2017-04-02T00:32:53.751Z,0
2017-04-02T00:33:12.529Z,0
2017-04-02T00:33:31.884Z,0
2017-04-02T00:33:51.188Z,0
2017-04-02T00:34:09.984Z,0
2017-04-02T00:34:29.314Z,0
2017-04-02T00:34:48.687Z,0
2017-04-02T00:35:07.519Z,0
2017-04-02T00:35:26.856Z,0
2017-04-02T00:35:46.187Z,0
2017-04-02T00:36:05.491Z,0
2017-04-02T00:36:24.819Z,0
2017-04-02T00:36:44.141Z,0
2017-04-02T00:37:03.465Z,0
2017-04-02T00:37:22.329Z,0
2017-04-02T00:37:41.657Z,0
2017-04-02T00:38:00.464Z,0
2017-04-02T00:38:19.782Z,0
2017-04-02T00:38:39.102Z,0
2017-04-02T00:38:58.460Z,0
2017-04-02T00:39:17.783Z,0
2017-04-02T00:39:37.076Z,0
2017-04-02T00:39:55.901Z,0
2017-04-02T00:40:15.195Z,0
2017-04-02T00:40:34.498Z,0
2017-04-02T00:40:53.846Z,0
2017-04-02T00:41:13.154Z,0
2017-04-02T00:41:31.951Z,0
2017-04-02T00:41:51.272Z,0
2017-04-02T00:42:10.606Z,0
2017-04-02T00:42:29.430Z,0
2017-04-02T00:42:48.742Z,0
2017-04-02T00:43:07.535Z,0
2017-04-02T00:43:26.862Z,0
2017-04-02T00:43:45.153Z,0
2017-04-02T00:44:04.490Z,0
2017-04-02T00:44:23.785Z,0
2017-04-02T00:44:42.600Z,0
2017-04-02T00:45:01.932Z,0
2017-04-02T00:45:21.232Z,0
2017-04-02T00:45:40.554Z,0
2017-04-02T00:45:59.857Z,0
2017-04-02T00:46:19.170Z,0
2017-04-02T00:46:38.482Z,0
2017-04-02T00:46:57.774Z,0
2017-04-02T00:47:16.587Z,0
2017-04-02T00:47:35.924Z,0
2017-04-02T00:47:55.243Z,0
2017-04-02T00:48:14.139Z,0
2017-04-02T00:48:32.946Z,0
2017-04-02T00:48:52.244Z,0
2017-04-02T00:49:11.053Z,0
2017-04-02T00:49:30.367Z,0
2017-04-02T00:49:49.657Z,0
2017-04-02T00:50:08.448Z,0
2017-04-02T00:50:27.733Z,0
2017-04-02T00:50:47.075Z,0
2017-04-02T00:51:06.411Z,0
2017-04-02T00:51:25.706Z,0
2017-04-02T00:51:44.494Z,0
2017-04-02T00:52:03.834Z,0
2017-04-02T00:52:22.621Z,0
2017-04-02T00:52:41.925Z,0
2017-04-02T00:53:01.248Z,0
2017-04-02T00:53:20.749Z,0
2017-04-02T00:53:40.038Z,0
2017-04-02T00:53:59.329Z,0
2017-04-02T00:54:18.640Z,0
2017-04-02T00:54:37.950Z,0
2017-04-02T00:54:56.771Z,0
2017-04-02T00:55:16.108Z,0
2017-04-02T00:55:34.954Z,0
2017-04-02T00:55:54.268Z,0
2017-04-02T00:56:13.565Z,0
2017-04-02T00:56:32.861Z,0
2017-04-02T00:56:52.188Z,0
2017-04-02T00:57:11.532Z,0
2017-04-02T00:57:30.855Z,0
2017-04-02T00:57:50.176Z,0
2017-04-02T00:58:09.501Z,0
2017-04-02T00:58:28.807Z,0
2017-04-02T00:58:48.117Z,0
2017-04-02T00:59:07.436Z,0
2017-04-02T00:59:26.753Z,0
2017-04-02T00:59:46.029Z,0
2017-04-02T01:00:05.339Z,0
2017-04-02T01:00:24.129Z,0
2017-04-02T01:00:43.436Z,0
2017-04-02T01:01:02.748Z,0
2017-04-02T01:01:22.075Z,0
2017-04-02T01:01:41.383Z,0
2017-04-02T01:02:00.682Z,0
2017-04-02T01:02:19.490Z,0
2017-04-02T01:02:38.812Z,0
2017-04-02T01:02:58.143Z,0
2017-04-02T01:03:16.931Z,0
2017-04-02T01:03:36.262Z,0
2017-04-02T01:03:55.044Z,0
2017-04-02T01:04:14.367Z,0
2017-04-02T01:04:33.144Z,0
2017-04-02T01:04:52.503Z,0
2017-04-02T01:05:11.292Z,0
2017-04-02T01:05:30.122Z,0
2017-04-02T01:05:48.914Z,0
2017-04-02T01:06:08.204Z,0
2017-04-02T01:06:27.524Z,0
2017-04-02T01:06:46.841Z,0
2017-04-02T01:07:05.619Z,0
2017-04-02T01:07:24.944Z,0
2017-04-02T01:07:44.301Z,0
2017-04-02T01:08:03.620Z,0
2017-04-02T01:08:22.925Z,0
2017-04-02T01:08:42.215Z,0
2017-04-02T01:09:01.531Z,0
2017-04-02T01:09:20.874Z,0
2017-04-02T01:09:40.213Z,0
2017-04-02T01:09:59.528Z,0
2017-04-02T01:10:18.853Z,0
2017-04-02T01:10:37.641Z,0
2017-04-02T01:10:56.944Z,0
2017-04-02T01:11:16.239Z,0
2017-04-02T01:11:35.559Z,0
2017-04-02T01:11:54.875Z,0
2017-04-02T01:12:13.687Z,0
2017-04-02T01:12:32.976Z,0
2017-04-02T01:12:52.344Z,0
2017-04-02T01:13:11.639Z,0
2017-04-02T01:13:29.915Z,0
2017-04-02T01:13:49.228Z,0
2017-04-02T01:14:08.091Z,0
2017-04-02T01:14:27.399Z,0
2017-04-02T01:14:46.195Z,0
2017-04-02T01:15:05.486Z,0
2017-04-02T01:15:24.857Z,0
2017-04-02T01:15:44.253Z,0
2017-04-02T01:16:03.581Z,0
2017-04-02T01:16:22.374Z,0
2017-04-02T01:16:41.711Z,0
2017-04-02T01:17:01.086Z,0
2017-04-02T01:17:20.468Z,0
2017-04-02T01:17:39.827Z,0
2017-04-02T01:17:58.627Z,0
2017-04-02T01:18:17.920Z,0
2017-04-02T01:18:37.243Z,0
2017-04-02T01:18:56.563Z,0
2017-04-02T01:19:15.912Z,0
2017-04-02T01:19:35.242Z,0
2017-04-02T01:19:54.690Z,0
2017-04-02T01:20:14.057Z,0
2017-04-02T01:20:32.933Z,0
2017-04-02T01:20:52.224Z,0
2017-04-02T01:21:10.995Z,0
2017-04-02T01:21:29.850Z,0
2017-04-02T01:21:49.143Z,0
2017-04-02T01:22:07.914Z,0
2017-04-02T01:22:26.701Z,0
2017-04-02T01:22:46.007Z,0
2017-04-02T01:23:05.333Z,0
2017-04-02T01:23:24.641Z,0
2017-04-02T01:23:44.510Z,0
2017-04-02T01:24:03.279Z,0
2017-04-02T01:24:22.615Z,0
2017-04-02T01:24:41.964Z,0
2017-04-02T01:25:00.797Z,0
2017-04-02T01:25:20.167Z,0
2017-04-02T01:25:39.525Z,0
2017-04-02T01:25:58.460Z,0
2017-04-02T01:26:18.256Z,0
2017-04-02T01:26:37.647Z,0
2017-04-02T01:26:56.444Z,0
2017-04-02T01:27:15.786Z,0
2017-04-02T01:27:35.122Z,0
2017-04-02T01:27:54.557Z,0
2017-04-02T01:28:13.976Z,0
2017-04-02T01:28:32.766Z,0
2017-04-02T01:28:52.085Z,0
2017-04-02T01:29:11.375Z,0
2017-04-02T01:29:30.754Z,0
2017-04-02T01:29:50.105Z,0
2017-04-02T01:30:09.423Z,0
2017-04-02T01:30:28.742Z,0
2017-04-02T01:30:48.054Z,0
2017-04-02T01:31:07.358Z,0
2017-04-02T01:31:26.693Z,0
2017-04-02T01:31:46.017Z,0
2017-04-02T01:32:04.862Z,0
2017-04-02T01:32:24.165Z,0
2017-04-02T01:32:43.003Z,0
2017-04-02T01:33:01.826Z,0
2017-04-02T01:33:21.291Z,0
2017-04-02T01:33:40.628Z,0
2017-04-02T01:33:59.954Z,0
2017-04-02T01:34:19.336Z,0
2017-04-02T01:34:38.651Z,0
2017-04-02T01:34:57.952Z,0
2017-04-02T01:35:17.266Z,0
2017-04-02T01:35:36.072Z,0
2017-04-02T01:35:55.365Z,0
2017-04-02T01:36:14.663Z,0
2017-04-02T01:36:33.974Z,0
2017-04-02T01:36:52.793Z,0
2017-04-02T01:37:12.158Z,0
2017-04-02T01:37:31.018Z,0
2017-04-02T01:37:50.334Z,0
2017-04-02T01:38:09.634Z,0
2017-04-02T01:38:28.919Z,0
2017-04-02T01:38:48.215Z,0
2017-04-02T01:39:07.551Z,0
2017-04-02T01:39:26.860Z,0
2017-04-02T01:39:45.638Z,0
2017-04-02T01:40:04.933Z,0
2017-04-02T01:40:23.194Z,0
2017-04-02T01:40:42.529Z,0
2017-04-02T01:41:01.813Z,0
2017-04-02T01:41:21.119Z,0
2017-04-02T01:41:40.424Z,0
2017-04-02T01:41:59.741Z,0
2017-04-02T01:42:19.054Z,0
2017-04-02T01:42:37.854Z,0
2017-04-02T01:42:57.157Z,0
2017-04-02T01:43:16.455Z,0
2017-04-02T01:43:35.775Z,0
2017-04-02T01:43:55.062Z,0
2017-04-02T01:44:14.405Z,0
2017-04-02T01:44:33.686Z,0
2017-04-02T01:44:52.978Z,0
2017-04-02T01:45:11.738Z,0
2017-04-02T01:45:31.069Z,0
2017-04-02T01:45:50.374Z,0
2017-04-02T01:46:09.185Z,0
2017-04-02T01:46:28.518Z,0
2017-04-02T01:46:47.862Z,0
2017-04-02T01:47:07.172Z,0
2017-04-02T01:47:26.486Z,0
2017-04-02T01:47:45.834Z,0
2017-04-02T01:48:05.223Z,0
2017-04-02T01:48:22.990Z,0
2017-04-02T01:48:42.293Z,0
2017-04-02T01:49:01.090Z,0
2017-04-02T01:49:19.872Z,0
2017-04-02T01:49:39.194Z,0
2017-04-02T01:49:58.526Z,0
2017-04-02T01:50:17.838Z,0
2017-04-02T01:50:37.223Z,0
2017-04-02T01:50:56.533Z,0
2017-04-02T01:51:15.869Z,0
2017-04-02T01:51:35.186Z,0
2017-04-02T01:51:53.975Z,0
2017-04-02T01:52:13.350Z,0
2017-04-02T01:52:32.738Z,0
2017-04-02T01:52:52.048Z,0
2017-04-02T01:53:11.474Z,0
2017-04-02T01:53:30.804Z,0
2017-04-02T01:53:50.122Z,0
2017-04-02T01:54:08.929Z,0
2017-04-02T01:54:28.224Z,0
2017-04-02T01:54:47.070Z,0
2017-04-02T01:55:05.883Z,0
2017-04-02T01:55:25.205Z,0
2017-04-02T17:55:22.635Z,59584
2017-04-02T17:55:40.532Z,58240
2017-04-02T17:55:59.845Z,57952
2017-04-02T17:56:19.185Z,58144
2017-04-02T17:56:37.993Z,59072
2017-04-02T17:56:57.333Z,59008
2017-04-02T17:57:16.656Z,59104
2017-04-02T17:57:36.030Z,59776
2017-04-02T17:57:54.845Z,60032
2017-04-02T17:58:14.192Z,60896
2017-04-02T17:58:33.528Z,61568
2017-04-02T17:58:52.842Z,61152
2017-04-02T17:59:11.674Z,60384
2017-04-02T17:59:30.482Z,59552
2017-04-02T17:59:49.300Z,58176
2017-04-02T18:00:08.638Z,56032
2017-04-02T18:00:27.036Z,54240
2017-04-02T18:00:45.889Z,53504
2017-04-02T18:01:05.207Z,53024
2017-04-02T18:01:24.041Z,30208
2017-04-02T18:01:42.881Z,18468
2017-04-02T18:02:02.206Z,15664
2017-04-02T18:02:21.067Z,14544
2017-04-02T18:02:39.879Z,14652
2017-04-02T18:02:58.715Z,29504
2017-04-02T18:03:17.530Z,53344
2017-04-02T18:03:36.881Z,45504
2017-04-02T18:03:55.184Z,18648
2017-04-02T18:04:13.967Z,50560
2017-04-02T18:04:32.248Z,48704
2017-04-02T18:04:51.594Z,47776
2017-04-02T18:05:10.948Z,48128
2017-04-02T18:05:29.975Z,48544
2017-04-02T18:05:48.279Z,49088
2017-04-02T18:06:07.616Z,49408
2017-04-02T18:06:26.421Z,49248
2017-04-02T18:06:45.228Z,48416
2017-04-02T18:07:04.575Z,48096
2017-04-02T18:07:23.408Z,48320
2017-04-02T18:07:42.744Z,49408
2017-04-02T18:08:01.600Z,50944
2017-04-02T18:08:20.951Z,51424
2017-04-02T18:08:39.291Z,54432
2017-04-02T18:08:58.621Z,54816
2017-04-02T18:09:17.463Z,54624
2017-04-02T18:09:36.836Z,53952
2017-04-02T18:09:55.651Z,53440
2017-04-02T18:10:14.497Z,53440
2017-04-02T18:10:34.025Z,53664
2017-04-02T18:10:52.883Z,54336
2017-04-02T18:11:11.682Z,54688
2017-04-02T18:11:30.511Z,55104
2017-04-02T18:11:49.317Z,56192
2017-04-02T18:12:08.129Z,56736
2017-04-02T18:12:27.465Z,56896
2017-04-02T18:12:46.264Z,56096
2017-04-02T18:13:05.072Z,54912
2017-04-02T18:13:23.912Z,52608
2017-04-02T18:13:42.219Z,50144
2017-04-02T18:14:01.086Z,47456
2017-04-02T18:14:20.417Z,46112
2017-04-02T18:14:39.768Z,46080
2017-04-02T18:14:58.063Z,47296
2017-04-02T18:15:16.895Z,48352
2017-04-02T18:15:35.480Z,49472
2017-04-02T18:15:54.811Z,49792
2017-04-02T18:16:14.110Z,49664
2017-04-02T18:16:32.924Z,49440
2017-04-02T18:16:52.237Z,49088
2017-04-02T18:17:11.591Z,48096
2017-04-02T18:17:30.926Z,46240
2017-04-02T18:17:49.732Z,44544
2017-04-02T18:18:09.069Z,43328
2017-04-02T18:18:28.377Z,43456
2017-04-02T18:18:47.692Z,45120
2017-04-02T18:19:06.509Z,47264
2017-04-02T18:19:25.315Z,49888
2017-04-02T18:19:44.642Z,51904
2017-04-02T18:20:03.972Z,53056
2017-04-02T18:20:22.811Z,53312
2017-04-02T18:20:41.627Z,52832
2017-04-02T18:21:00.966Z,52448
2017-04-02T18:21:20.322Z,52288
2017-04-02T18:21:39.672Z,51520
2017-04-02T18:21:57.968Z,51520
2017-04-02T18:22:16.831Z,52160
2017-04-02T18:22:35.633Z,53024
2017-04-02T18:22:54.435Z,53920
2017-04-02T18:23:13.825Z,54496
2017-04-02T18:23:33.156Z,54944
2017-04-02T18:23:51.955Z,55264
2017-04-02T18:24:10.749Z,55200
2017-04-02T18:24:29.582Z,54688
2017-04-02T18:24:48.907Z,53280
2017-04-02T18:25:07.751Z,51680
2017-04-02T18:25:27.114Z,50496
2017-04-02T18:25:46.438Z,44448
2017-04-02T18:26:05.241Z,43040
2017-04-02T18:26:24.591Z,13736
2017-04-02T18:26:42.375Z,12564
2017-04-02T18:27:01.715Z,11668
2017-04-02T18:27:21.075Z,10948
2017-04-02T18:27:40.413Z,10604
2017-04-02T18:27:59.253Z,10924
2017-04-02T18:28:18.110Z,12940
2017-04-02T18:28:36.923Z,10984
2017-04-02T18:28:56.235Z,11332
2017-04-02T18:29:15.565Z,18860
2017-04-02T18:29:34.394Z,45216
2017-04-02T18:29:53.733Z,45600
2017-04-02T18:30:12.538Z,45024
2017-04-02T18:30:31.378Z,44512
2017-04-02T18:30:49.679Z,44128
2017-04-02T18:31:09.004Z,44128
2017-04-02T18:31:27.839Z,43456
2017-04-02T18:31:47.184Z,42560
2017-04-02T18:32:06.002Z,41504
2017-04-02T18:32:25.337Z,40768
2017-04-02T18:32:44.139Z,40800
2017-04-02T18:33:02.451Z,41152
2017-04-02T18:33:21.786Z,41088
2017-04-02T18:33:41.135Z,40224
2017-04-02T18:34:00.580Z,38656
2017-04-02T18:34:20.599Z,37568
2017-04-02T18:34:39.493Z,37472
2017-04-02T18:34:58.389Z,37792
2017-04-02T18:35:17.272Z,38944
2017-04-02T18:35:37.029Z,40800
2017-04-02T18:35:57.020Z,42624
2017-04-02T18:36:16.474Z,43552
2017-04-02T18:36:36.487Z,43392
2017-04-02T18:36:56.504Z,42560
2017-04-02T18:37:15.944Z,41248
2017-04-02T18:37:35.945Z,38848
2017-04-02T18:37:55.964Z,36448
2017-04-02T18:38:15.986Z,34304
2017-04-02T18:38:35.454Z,33312
2017-04-02T18:38:54.347Z,32544
2017-04-02T18:39:14.368Z,32032
2017-04-02T18:39:34.358Z,31584
2017-04-02T18:39:54.385Z,30624
2017-04-02T18:40:13.810Z,30176
2017-04-02T18:40:33.533Z,30816
2017-04-02T18:40:53.007Z,32288
2017-04-02T18:41:13.077Z,33344
2017-04-02T18:41:33.108Z,34112
2017-04-02T18:41:52.601Z,35072
2017-04-02T18:42:12.646Z,35328
2017-04-02T18:42:32.100Z,35552
2017-04-02T18:42:52.106Z,35584
2017-04-02T18:43:12.107Z,35904
2017-04-02T18:43:31.554Z,36096
2017-04-02T18:43:50.478Z,36096
2017-04-02T18:44:10.540Z,37024
2017-04-02T18:44:30.559Z,37632
2017-04-02T18:44:50.007Z,30368
2017-04-02T18:45:10.028Z,17024
2017-04-02T18:45:30.035Z,17100
2017-04-02T18:45:50.047Z,19072
2017-04-02T18:46:10.102Z,36480
2017-04-02T18:46:30.113Z,36416
2017-04-02T18:46:50.137Z,24992
2017-04-02T18:47:10.182Z,35616
2017-04-02T18:47:28.520Z,17016
2017-04-02T18:47:48.556Z,14152
2017-04-02T18:48:08.577Z,14644
2017-04-02T18:48:28.573Z,17928
2017-04-02T18:48:48.584Z,38912
2017-04-02T18:49:08.594Z,38752
2017-04-02T18:49:28.589Z,37408
2017-04-02T18:49:48.604Z,36448
2017-04-02T18:50:08.070Z,36416
2017-04-02T18:50:27.601Z,36512
2017-04-02T18:50:47.621Z,36032
2017-04-02T18:51:06.508Z,35968
2017-04-02T18:51:25.959Z,35680
2017-04-02T18:51:45.992Z,34688
2017-04-02T18:52:05.453Z,32576
2017-04-02T18:52:25.495Z,23296
2017-04-02T18:52:45.525Z,31936
2017-04-02T18:53:05.566Z,32832
2017-04-02T18:53:25.593Z,32640
2017-04-02T18:53:45.609Z,33280
2017-04-02T18:54:05.651Z,31776
2017-04-02T18:54:25.083Z,30720
2017-04-02T18:54:45.087Z,30368
2017-04-02T18:55:04.551Z,29600
2017-04-02T18:55:23.440Z,29728
2017-04-02T18:55:43.456Z,30144
2017-04-02T18:56:02.908Z,29920
2017-04-02T18:56:22.953Z,29344
2017-04-02T18:56:42.972Z,28640
2017-04-02T18:57:02.979Z,28480
2017-04-02T18:57:22.998Z,26368
2017-04-02T18:57:42.468Z,14568
2017-04-02T18:58:02.469Z,11948
2017-04-02T18:58:21.961Z,10952
2017-04-02T18:58:41.945Z,23072
2017-04-02T18:59:01.987Z,29408
2017-04-02T18:59:21.429Z,28800
2017-04-02T18:59:40.876Z,27904
2017-04-02T19:00:00.336Z,27072
2017-04-02T19:00:20.372Z,26720
2017-04-02T19:00:39.838Z,26336
2017-04-02T19:00:59.279Z,26336
2017-04-02T19:01:18.185Z,26272
2017-04-02T19:01:37.611Z,25952
2017-04-02T19:01:57.625Z,24608
2017-04-02T19:02:17.111Z,16524
2017-04-02T19:02:37.120Z,9056
2017-04-02T19:02:55.994Z,17088
2017-04-02T19:03:16.012Z,12236
2017-04-02T19:03:36.040Z,15660
2017-04-02T19:03:55.472Z,11916
2017-04-02T19:04:14.948Z,9168
2017-04-02T19:04:34.400Z,8464
2017-04-02T19:04:53.300Z,8556
2017-04-02T19:05:12.745Z,8816
2017-04-02T19:05:33.070Z,9104
2017-04-02T19:05:53.078Z,23168
2017-04-02T19:06:12.549Z,20640
2017-04-02T19:06:32.048Z,22688
2017-04-02T19:06:52.094Z,13900
2017-04-02T19:07:12.132Z,19520
2017-04-02T19:07:32.177Z,24032
2017-04-02T19:07:52.207Z,24160
2017-04-02T19:08:11.673Z,24288
2017-04-02T19:08:31.143Z,24128
2017-04-02T19:08:50.618Z,24480
2017-04-02T19:09:10.649Z,24800
2017-04-02T19:09:30.642Z,24864
2017-04-02T19:09:50.085Z,24928
2017-04-02T19:10:09.535Z,24768
2017-04-02T19:10:28.974Z,24640
2017-04-02T19:10:48.971Z,24224
2017-04-02T19:11:08.981Z,24512
2017-04-02T19:11:28.420Z,24768
2017-04-02T19:11:48.444Z,24736
2017-04-02T19:12:08.464Z,24896
2017-04-02T19:12:27.916Z,25216
2017-04-02T19:12:47.925Z,24832
2017-04-02T19:13:07.929Z,24704
2017-04-02T19:13:26.822Z,24640
2017-04-02T19:13:46.857Z,24288
2017-04-02T19:14:06.861Z,23200
2017-04-02T19:14:26.901Z,12432
2017-04-02T19:14:46.377Z,12664
2017-04-02T19:15:05.848Z,12752
2017-04-02T19:15:25.309Z,12796
2017-04-02T19:15:45.461Z,12468
2017-04-02T19:16:05.477Z,13680
2017-04-02T19:16:24.944Z,23296
2017-04-02T19:16:44.407Z,23168
2017-04-02T19:17:03.882Z,22816
2017-04-02T19:17:23.878Z,22432
2017-04-02T19:17:43.902Z,22464
2017-04-02T19:18:03.915Z,22752
2017-04-02T19:18:23.415Z,22336
2017-04-02T19:18:43.427Z,21888
2017-04-02T19:19:03.444Z,18720
2017-04-02T19:19:23.464Z,12400
2017-04-02T19:19:42.930Z,12472
2017-04-02T19:20:02.383Z,12684
2017-04-02T19:20:21.847Z,13052
2017-04-02T19:20:42.053Z,13608
2017-04-02T19:21:02.078Z,14588
2017-04-02T19:21:22.142Z,17824
2017-04-02T19:21:41.606Z,20032
2017-04-02T19:22:01.629Z,20384
2017-04-02T19:22:21.650Z,20352
2017-04-02T19:22:41.663Z,16152
2017-04-02T19:23:01.683Z,16184
2017-04-02T19:23:21.665Z,16092
2017-04-02T19:23:41.667Z,15748
2017-04-02T19:24:01.122Z,15224
2017-04-02T19:24:21.139Z,14728
2017-04-02T19:24:41.150Z,14264
2017-04-02T19:25:01.193Z,13700
2017-04-02T19:25:21.196Z,13100
2017-04-02T19:25:40.662Z,12620
2017-04-02T19:26:00.678Z,12316
2017-04-02T19:26:20.140Z,12052
2017-04-02T19:26:39.575Z,11796
2017-04-02T19:26:59.602Z,11608
2017-04-02T19:27:19.079Z,11556
2017-04-02T19:27:38.546Z,11600
2017-04-02T19:27:58.591Z,11828
2017-04-02T19:28:18.585Z,12072
2017-04-02T19:28:38.605Z,12132
2017-04-02T19:28:58.051Z,12080
2017-04-02T19:29:17.512Z,12176
2017-04-02T19:29:37.565Z,14504
2017-04-02T19:29:57.631Z,17984
2017-04-02T19:30:17.111Z,18304
2017-04-02T19:30:37.113Z,19392
2017-04-02T19:30:56.569Z,19328
2017-04-02T19:31:16.041Z,19264
2017-04-02T19:31:36.069Z,19232
2017-04-02T19:31:55.529Z,19136
2017-04-02T19:32:14.981Z,18816
2017-04-02T19:32:35.029Z,18560
2017-04-02T19:32:54.490Z,18080
2017-04-02T19:33:13.941Z,17728
2017-04-02T19:33:32.853Z,17536
2017-04-02T19:33:52.326Z,17504
2017-04-02T19:34:11.783Z,17248
2017-04-02T19:34:31.804Z,17088
2017-04-02T19:34:51.247Z,16864
2017-04-02T19:35:11.249Z,16928
2017-04-02T19:35:45.393Z,11088
2017-04-02T19:36:04.817Z,10716
2017-04-02T19:36:24.822Z,11456
2017-04-02T19:36:43.715Z,13692
2017-04-02T19:37:03.176Z,17152
2017-04-02T19:37:23.197Z,12588
2017-04-02T19:37:43.211Z,12568
2017-04-02T19:38:03.225Z,12868
2017-04-02T19:38:23.241Z,13084
2017-04-02T19:38:43.270Z,13264
2017-04-02T19:39:02.699Z,13056
2017-04-02T19:39:22.711Z,12836
2017-04-02T19:39:42.738Z,12652
2017-04-02T19:40:02.249Z,12416
2017-04-02T19:40:21.691Z,12284
2017-04-02T19:40:41.965Z,12276
2017-04-02T19:41:02.003Z,12368
2017-04-02T19:41:22.055Z,12608
2017-04-02T19:41:42.077Z,13292
2017-04-02T19:42:01.548Z,16288
2017-04-02T19:42:21.571Z,17184
2017-04-02T19:42:41.038Z,13472
2017-04-02T19:43:01.043Z,11540
2017-04-02T19:43:21.055Z,17984
2017-04-02T19:43:41.049Z,13900
2017-04-02T19:44:01.099Z,15680
2017-04-02T19:44:21.156Z,13064
2017-04-02T19:44:40.117Z,16864
2017-04-02T19:45:00.130Z,11072
2017-04-02T19:45:19.593Z,11516
2017-04-02T19:45:39.612Z,11928
2017-04-02T19:45:59.093Z,12204
2017-04-02T19:46:19.095Z,12496
2017-04-02T19:46:38.578Z,12504
2017-04-02T19:46:58.570Z,12264
2017-04-02T19:47:18.630Z,12052
2017-04-02T19:47:38.645Z,14732
2017-04-02T19:47:57.542Z,15436
2017-04-02T19:48:17.580Z,14948
2017-04-02T19:48:37.036Z,14444
2017-04-02T19:48:57.039Z,13872
2017-04-02T19:49:17.063Z,13504
2017-04-02T19:49:37.121Z,13208
2017-04-02T19:49:57.120Z,12980
2017-04-02T19:50:17.136Z,12800
2017-04-02T19:50:38.675Z,12556
2017-04-02T19:51:23.867Z,12156
2017-04-02T19:51:42.681Z,12012
2017-04-02T19:52:04.034Z,11924
2017-04-02T19:52:23.403Z,11956
2017-04-02T19:52:41.754Z,11852
2017-04-02T19:53:01.079Z,11776
2017-04-02T19:53:20.397Z,11800
2017-04-02T19:53:39.745Z,12180
2017-04-02T19:53:58.574Z,12308
2017-04-02T19:54:17.913Z,12288
2017-04-02T19:54:37.242Z,12428
2017-04-02T19:54:56.035Z,12528
2017-04-02T19:55:15.370Z,12492
2017-04-02T19:55:34.723Z,12324
2017-04-02T19:55:54.082Z,8628
2017-04-02T19:56:13.402Z,8932
2017-04-02T19:56:32.740Z,7156
2017-04-02T19:56:52.085Z,6956
2017-04-02T19:57:10.889Z,6904
2017-04-02T19:57:30.206Z,6924
2017-04-02T19:57:49.035Z,7560
2017-04-02T19:58:07.845Z,7012
2017-04-02T19:58:26.670Z,6904
2017-04-02T19:58:46.020Z,6872
2017-04-02T19:59:04.850Z,6900
2017-04-02T19:59:24.189Z,6980
2017-04-02T19:59:43.542Z,7036
2017-04-02T20:00:02.883Z,6936
2017-04-02T20:00:22.232Z,6788
2017-04-02T20:00:41.060Z,6516
2017-04-02T20:01:00.420Z,6220
2017-04-02T20:01:19.759Z,5968
2017-04-02T20:01:38.055Z,5804
2017-04-02T20:01:57.393Z,5692
2017-04-02T20:02:16.762Z,5660
2017-04-02T20:02:36.116Z,5724
2017-04-02T20:02:54.457Z,5900
2017-04-02T20:03:13.816Z,6160
2017-04-02T20:03:33.155Z,6460
2017-04-02T20:03:52.473Z,6812
2017-04-02T20:04:11.323Z,7020
2017-04-02T20:04:30.653Z,7072
2017-04-02T20:04:49.984Z,7024
2017-04-02T20:05:08.832Z,6920
2017-04-02T20:05:28.155Z,6848
2017-04-02T20:05:46.975Z,6896
2017-04-02T20:06:05.778Z,6992
2017-04-02T20:06:25.115Z,6980
2017-04-02T20:06:44.468Z,6816
2017-04-02T20:07:03.798Z,6532
2017-04-02T20:07:23.170Z,6248
2017-04-02T20:07:42.494Z,5980
2017-04-02T20:08:01.296Z,5780
2017-04-02T20:08:20.608Z,5652
2017-04-02T20:08:39.968Z,5568
2017-04-02T20:08:59.295Z,5488
2017-04-02T20:09:18.622Z,5432
2017-04-02T20:09:37.431Z,6560
2017-04-02T20:09:56.219Z,7304
2017-04-02T20:10:15.005Z,7036
2017-04-02T20:10:34.332Z,5220
2017-04-02T20:10:53.635Z,5184
2017-04-02T20:11:12.943Z,5280
2017-04-02T20:11:32.270Z,5248
2017-04-02T20:11:51.575Z,5036
2017-04-02T20:12:10.378Z,5012
2017-04-02T20:12:29.222Z,4884
2017-04-02T20:12:48.620Z,4844
2017-04-02T20:13:07.458Z,4824
2017-04-02T20:13:25.748Z,4804
2017-04-02T20:13:45.080Z,4772
2017-04-02T20:14:04.432Z,4732
2017-04-02T20:14:23.747Z,4692
2017-04-02T20:14:43.071Z,4644
2017-04-02T20:15:02.417Z,4564
2017-04-02T20:15:21.776Z,4496
2017-04-02T20:15:41.094Z,4424
2017-04-02T20:16:00.442Z,4380
2017-04-02T20:16:19.901Z,4376
2017-04-02T20:16:39.256Z,4412
2017-04-02T20:16:57.548Z,4432
2017-04-02T20:17:15.834Z,4452
2017-04-02T20:17:33.671Z,4484
2017-04-02T20:17:52.491Z,4500
2017-04-02T20:18:11.285Z,4508
2017-04-02T20:18:30.094Z,4528
2017-04-02T20:18:49.443Z,4544
2017-04-02T20:19:08.793Z,4540
2017-04-02T20:19:27.628Z,4516
2017-04-02T20:19:46.963Z,4460
2017-04-02T20:20:05.771Z,4436
2017-04-02T20:20:25.091Z,4452
2017-04-02T20:20:57.901Z,4532
2017-04-02T20:21:16.806Z,4584
2017-04-02T20:21:36.148Z,4824
2017-04-02T20:21:55.497Z,4896
2017-04-02T20:22:14.329Z,4588
2017-04-02T20:22:33.150Z,4488
2017-04-02T20:22:52.476Z,4376
2017-04-02T20:23:10.797Z,4284
2017-04-02T20:23:30.136Z,4168
2017-04-02T20:23:49.484Z,4032
2017-04-02T20:24:08.824Z,3904
2017-04-02T20:24:27.636Z,3796
2017-04-02T20:24:46.455Z,3696
2017-04-02T20:25:05.843Z,3640
2017-04-02T20:25:25.176Z,3608